Cape Willoughby, Australia
Current Conditions -  °F | °C
As of 8:00 AM on Thursday 29 Jan 2015 (Local Time) from YPAD Reporting Station
Clear Clear  
Wind Chill: 68°   Ceiling: Unl
Heat Index: 68°   Visibility: 6mi
Dew Point: 43°   Wind: 14mph
Humidity: 40%   Direction: 120°ESE
Pressure: 30.03"   Gusts: NA
Location:  35.84°S, 138.13°E
Report Text: YPAD 282200Z 12012KT CAVOK 20/06 Q1017 FM2200 MOD TURB BLW 5000FT TILL 2300
Loading
Personal Weather Stations






























Interactive Weather Map New forecast layout! Learn more

10-Day Weather Forecast

Advertisements
Track Severe Weather on mobile